Terminal Aerodrome Forecast
Issued by NWS

Home | Current Version | Previous Version | Text Only | Print | Product List | Glossary On
Versions: 1 2 3 4 5 6 7 8 9 10 11 12 13 14 15 16 17 18 19 20 21 22 23 24 25 26 27 28 29 30 31 32 33 34
000
FTUS45 KBYZ 292320
TAFLVM
TAF
KLVM 292320Z 3000/3024 23022G34KT P6SM BKN150
     FM301000 23013G22KT P6SM VCSH SCT015 BKN040 OVC100
     FM301300 30018G30KT 3SM -RA SCT010 BKN015 OVC025
     FM301700 VRB06KT 6SM -SHRA SCT015 BKN060=

USA.gov is the U.S. government's official web portal to all federal, state and local government web resources and services.